Time;durP1;ratioP1;P1;durP2;ratioP2;P2;SDS_P1;SDS_P2;PMS_P1;PMS_P2;Temp;Humidity;BMP_temperature;BMP_pressure;BME280_temperature;BME280_humidity;BME280_pressure;Samples;Min_cycle;Max_cycle;Signal;HPM_P1;HPM_P2
2022/11/02 00:02:15;;;;;;;4.85;2.20;;;;;;;20.90;49.72;101260.25;5095058;28;20035;-68
2022/11/02 00:04:41;;;;;;;7.40;2.38;;;;;;;20.91;49.40;101262.69;5095778;28;20113;-69
2022/11/02 00:07:07;;;;;;;5.80;2.80;;;;;;;20.95;49.84;101258.69;5090931;28;20043;-69
2022/11/02 00:09:32;;;;;;;8.00;2.20;;;;;;;20.92;49.76;101261.69;5092723;28;20051;-69
2022/11/02 00:11:58;;;;;;;2.97;1.92;;;;;;;20.94;49.52;101269.47;5094771;28;20028;-68
2022/11/02 00:14:23;;;;;;;6.35;2.20;;;;;;;20.91;49.62;101265.34;5096624;28;20362;-69
2022/11/02 00:16:49;;;;;;;7.55;2.00;;;;;;;20.97;49.35;101269.94;5089424;28;20097;-69
2022/11/02 00:19:14;;;;;;;6.28;2.20;;;;;;;20.93;49.59;101255.41;5092570;28;20067;-69
2022/11/02 00:21:40;;;;;;;8.75;2.83;;;;;;;20.97;49.80;101248.75;5092890;28;20059;-69
2022/11/02 00:24:07;;;;;;;4.78;1.92;;;;;;;20.98;49.33;101245.09;5089259;28;20039;-69
2022/11/02 00:26:35;;;;;;;6.13;2.45;;;;;;;20.93;49.60;101239.53;5090773;28;20046;-69
2022/11/02 00:29:02;;;;;;;5.00;2.10;;;;;;;20.95;49.43;101256.06;5093834;28;20043;-69
2022/11/02 00:31:27;;;;;;;6.43;2.17;;;;;;;20.92;49.51;101282.88;5091109;28;20101;-69
2022/11/02 00:33:53;;;;;;;5.95;1.98;;;;;;;20.88;49.48;101292.19;5093197;28;20130;-69
2022/11/02 00:36:19;;;;;;;5.47;1.83;;;;;;;21.01;49.40;101339.25;5085103;28;20047;-69
2022/11/02 00:38:45;;;;;;;6.32;2.03;;;;;;;20.98;49.55;101327.19;5092515;28;20036;-69
2022/11/02 00:41:11;;;;;;;4.20;1.83;;;;;;;20.95;49.65;101306.34;5092422;28;20097;-69
2022/11/02 00:43:37;;;;;;;6.75;2.20;;;;;;;20.99;49.40;101291.75;5089693;28;20726;-69
2022/11/02 00:46:03;;;;;;;5.13;1.85;;;;;;;20.95;49.49;101285.16;5093351;27;20042;-68
2022/11/02 00:48:30;;;;;;;6.57;2.00;;;;;;;20.91;49.69;101299.75;5090593;28;20400;-69
2022/11/02 00:50:56;;;;;;;5.82;2.38;;;;;;;21.03;49.28;101297.53;5090012;28;20149;-69
2022/11/02 00:53:25;;;;;;;6.50;1.92;;;;;;;20.92;49.75;101295.28;5087878;28;20046;-69
2022/11/02 00:55:52;;;;;;;7.97;1.63;;;;;;;20.98;49.52;101261.00;5086866;28;20039;-69
2022/11/02 00:58:19;;;;;;;6.68;1.90;;;;;;;20.97;49.41;101271.75;5084893;28;20039;-68
2022/11/02 01:00:44;;;;;;;3.15;1.80;;;;;;;21.02;49.24;101280.00;5091689;28;20658;-69
2022/11/02 01:03:10;;;;;;;4.80;1.83;;;;;;;20.98;49.46;101287.47;5086763;28;20047;-69
2022/11/02 01:05:36;;;;;;;4.68;1.80;;;;;;;20.94;49.53;101282.69;5089113;28;20047;-69
2022/11/02 01:08:02;;;;;;;4.00;1.88;;;;;;;20.93;49.73;101287.19;5090001;28;20035;-69
2022/11/02 01:10:28;;;;;;;4.47;1.98;;;;;;;20.92;49.70;101282.06;5092794;28;20035;-68
2022/11/02 01:12:53;;;;;;;10.20;2.38;;;;;;;20.94;49.43;101256.22;5091722;28;20071;-69
2022/11/02 01:15:19;;;;;;;3.35;1.70;;;;;;;20.98;49.48;101270.75;5089086;28;20131;-69
2022/11/02 01:17:44;;;;;;;3.95;1.70;;;;;;;20.93;49.42;101250.13;5108978;28;20125;-69
2022/11/02 01:20:10;;;;;;;4.63;1.73;;;;;;;20.93;49.66;101254.59;5084985;28;20036;-69
2022/11/02 01:22:35;;;;;;;4.82;1.83;;;;;;;20.96;49.51;101257.69;5086798;28;20081;-69
2022/11/02 01:25:01;;;;;;;7.05;2.00;;;;;;;20.94;49.42;101264.16;5086113;28;20148;-68
2022/11/02 01:27:27;;;;;;;3.08;1.80;;;;;;;20.87;49.52;101256.13;5089239;28;20097;-69
2022/11/02 01:29:52;;;;;;;4.43;1.90;;;;;;;20.91;49.48;101246.81;5087896;28;20116;-69
2022/11/02 01:32:18;;;;;;;4.18;1.77;;;;;;;20.90;49.76;101247.00;5092773;28;20054;-69
2022/11/02 01:34:43;;;;;;;6.50;1.85;;;;;;;20.95;49.47;101250.75;5090204;28;20058;-69
2022/11/02 01:37:09;;;;;;;2.22;1.42;;;;;;;20.96;49.43;101254.22;5092768;28;20044;-69
2022/11/02 01:39:34;;;;;;;4.30;1.67;;;;;;;20.90;49.63;101234.59;5066844;28;20075;-69
2022/11/02 01:42:01;;;;;;;2.78;1.20;;;;;;;20.85;49.84;101246.72;5088724;28;20182;-69
2022/11/02 01:44:35;;;;;;;3.08;1.60;;;;;;;20.85;49.57;101241.41;5087760;28;20059;-69
2022/11/02 01:47:30;;;;;;;5.10;1.45;;;;;;;20.85;49.88;101236.13;5093351;28;20050;-69
2022/11/02 01:50:24;;;;;;;2.95;1.40;;;;;;;20.89;49.64;101235.59;5093351;28;20097;-69
2022/11/02 01:52:50;;;;;;;2.72;1.52;;;;;;;20.91;49.65;101230.13;5088974;28;20036;-69
2022/11/02 01:55:21;;;;;;;2.50;1.33;;;;;;;20.84;49.66;101234.47;5088321;28;20039;-69
2022/11/02 01:57:53;;;;;;;2.13;1.42;;;;;;;20.93;49.47;101239.53;5091123;28;20044;-69
2022/11/02 02:00:19;;;;;;;1.70;0.88;;;;;;;20.93;49.30;101239.53;5088563;28;20691;-69
2022/11/02 02:02:51;;;;;;;3.10;1.60;;;;;;;20.90;49.81;101242.53;5092795;28;20040;-69
2022/11/02 02:05:20;;;;;;;3.47;1.25;;;;;;;20.85;49.48;101236.94;5089743;28;20028;-69
2022/11/02 02:07:46;;;;;;;2.70;1.45;;;;;;;20.83;49.70;101236.31;5088179;28;20035;-69
2022/11/02 02:10:12;;;;;;;3.47;1.48;;;;;;;20.88;49.80;101235.78;5085662;28;20389;-69
2022/11/02 02:12:40;;;;;;;1.98;1.10;;;;;;;20.81;49.62;101233.81;5100401;28;20024;-69
2022/11/02 02:15:07;;;;;;;2.47;1.27;;;;;;;20.89;49.76;101219.69;5090658;28;20040;-69
2022/11/02 02:17:46;;;;;;;3.40;1.50;;;;;;;20.92;49.34;101226.47;5091909;28;20027;-69
2022/11/02 02:20:37;;;;;;;2.25;1.17;;;;;;;20.87;49.57;101192.59;5096588;28;20485;-68
2022/11/02 02:23:27;;;;;;;2.45;1.10;;;;;;;20.99;49.24;101174.44;5093775;28;20043;-68
2022/11/02 02:26:35;;;;;;;2.58;1.08;;;;;;;20.83;49.78;101159.53;5096277;28;20082;-69
2022/11/02 02:29:21;;;;;;;5.03;1.27;;;;;;;20.93;49.50;101183.09;5112215;27;20036;-68
2022/11/02 02:32:04;;;;;;;4.93;1.60;;;;;;;20.91;49.56;101182.47;5096806;28;20035;-68
2022/11/02 02:34:41;;;;;;;3.38;1.33;;;;;;;20.90;49.41;101173.69;5096645;27;20043;-68
2022/11/02 02:37:15;;;;;;;3.42;1.60;;;;;;;20.91;49.75;101185.13;5092908;28;20043;-68
2022/11/02 02:39:49;;;;;;;2.88;1.42;;;;;;;20.86;49.79;101175.06;5095906;28;20284;-68
2022/11/02 02:42:21;;;;;;;4.70;1.50;;;;;;;20.84;49.81;101179.72;5092903;28;20039;-68
2022/11/02 02:44:57;;;;;;;4.03;1.73;;;;;;;20.88;49.36;101180.19;5089590;28;20052;-68
2022/11/02 02:47:27;;;;;;;3.80;2.03;;;;;;;20.84;49.81;101176.25;5096943;28;20611;-69
2022/11/02 02:50:15;;;;;;;3.13;1.50;;;;;;;20.93;49.70;101180.47;5100320;28;20027;-68
2022/11/02 02:52:43;;;;;;;3.10;1.42;;;;;;;20.85;49.64;101169.94;5091836;28;20038;-68
2022/11/02 02:55:17;;;;;;;2.25;1.10;;;;;;;20.85;49.62;101167.31;5098178;28;20028;-69
2022/11/02 02:57:45;;;;;;;2.05;1.48;;;;;;;20.86;49.74;101176.88;5094708;28;20039;-69
2022/11/02 03:00:15;;;;;;;3.53;1.77;;;;;;;20.85;49.90;101172.59;5094851;28;20032;-68
2022/11/02 03:02:42;;;;;;;2.70;0.80;;;;;;;20.84;49.59;101163.84;5088242;28;20040;-68
2022/11/02 03:05:25;;;;;;;1.75;1.10;;;;;;;20.98;49.14;101173.63;5091868;28;20119;-68
2022/11/02 03:07:51;;;;;;;1.75;1.38;;;;;;;20.81;49.83;101193.28;5087476;28;20085;-68
2022/11/02 03:10:31;;;;;;;5.93;1.88;;;;;;;20.88;49.77;101182.81;5093600;28;20038;-68
2022/11/02 03:13:03;;;;;;;2.13;1.38;;;;;;;20.83;49.74;101177.25;5092975;28;20358;-68
2022/11/02 03:15:44;;;;;;;2.95;1.33;;;;;;;20.93;49.57;101181.28;5097226;28;20570;-68
2022/11/02 03:18:23;;;;;;;4.82;2.00;;;;;;;20.93;49.35;101178.63;5101981;28;20032;-69
2022/11/02 03:21:06;;;;;;;2.45;1.40;;;;;;;20.83;49.55;101186.00;5098594;28;20261;-68
2022/11/02 03:23:37;;;;;;;2.10;1.45;;;;;;;20.89;49.45;101185.28;5089303;28;20047;-68
2022/11/02 03:26:10;;;;;;;3.42;1.60;;;;;;;20.80;49.75;101189.81;5098480;28;20031;-68
2022/11/02 03:28:58;;;;;;;2.97;1.33;;;;;;;20.88;49.55;101185.47;5097346;28;20154;-68
2022/11/02 03:31:53;;;;;;;2.83;1.63;;;;;;;20.82;49.63;101184.34;5087889;28;20148;-69
2022/11/02 03:34:23;;;;;;;4.97;1.70;;;;;;;20.77;49.71;101194.63;5023096;28;20132;-68
2022/11/02 03:36:59;;;;;;;2.92;1.20;;;;;;;20.80;49.62;101195.09;5085361;27;20062;-68
2022/11/02 03:39:39;;;;;;;2.75;1.38;;;;;;;20.80;49.44;101181.88;5095540;28;20039;-69
2022/11/02 03:42:10;;;;;;;3.78;1.45;;;;;;;20.83;49.36;101180.72;5111101;27;20108;-69
2022/11/02 03:44:38;;;;;;;2.60;1.80;;;;;;;20.80;49.78;101186.34;5093390;28;20039;-68
2022/11/02 03:47:10;;;;;;;2.63;1.27;;;;;;;20.72;49.77;101171.38;5094616;28;20071;-68
2022/11/02 03:49:39;;;;;;;2.95;1.20;;;;;;;20.81;49.36;101186.16;5095310;28;20034;-68
2022/11/02 03:52:07;;;;;;;;;;;;;;;20.76;49.64;101183.22;5097166;27;20477;-68
2022/11/02 03:54:54;;;;;;;2.40;1.40;;;;;;;20.81;49.60;101183.50;5094563;28;19915;-68
2022/11/02 03:57:27;;;;;;;2.47;1.33;;;;;;;20.73;49.61;101182.78;5088305;28;20055;-69
2022/11/02 04:00:09;;;;;;;4.88;2.00;;;;;;;20.79;49.45;101190.81;5096334;28;20063;-68
2022/11/02 04:02:43;;;;;;;4.57;1.65;;;;;;;20.77;49.63;101184.06;5089791;28;20043;-68
2022/11/02 04:05:09;;;;;;;3.42;1.50;;;;;;;20.85;49.43;101191.13;5094844;28;20463;-69
2022/11/02 04:10:24;;;;;;;3.88;1.40;;;;;;;20.81;49.58;101204.69;5097054;28;20059;-68
2022/11/02 04:15:34;;;;;;;3.47;1.48;;;;;;;20.90;49.08;101200.16;5092124;28;20111;-69
2022/11/02 04:20:49;;;;;;;5.13;1.70;;;;;;;20.78;49.54;101222.75;5097232;28;20043;-68
2022/11/02 04:25:59;;;;;;;2.83;1.65;;;;;;;20.88;49.27;101231.28;5093895;28;20035;-69
2022/11/02 04:28:39;;;;;;;3.28;1.45;;;;;;;20.78;49.39;101239.47;5088622;28;20058;-68
2022/11/02 04:31:05;;;;;;;2.22;1.40;;;;;;;20.79;49.46;101243.75;5092529;28;20038;-68
2022/11/02 04:33:36;;;;;;;3.03;1.20;;;;;;;20.73;49.60;101247.09;5091947;28;20070;-69
2022/11/02 04:36:07;;;;;;;4.47;1.65;;;;;;;20.71;49.62;101248.28;5098383;28;20150;-68
2022/11/02 04:38:40;;;;;;;4.68;1.80;;;;;;;20.74;49.34;101255.88;5090459;28;20390;-68
2022/11/02 04:41:41;;;;;;;5.90;1.73;;;;;;;20.76;49.47;101249.41;5092756;28;20051;-68
2022/11/02 04:44:18;;;;;;;3.95;1.42;;;;;;;20.85;49.07;101242.25;5101747;28;20072;-68
2022/11/02 04:46:55;;;;;;;3.55;1.45;;;;;;;20.81;49.29;101262.09;5091499;28;20024;-68
2022/11/02 04:49:24;;;;;;;3.80;1.33;;;;;;;20.70;49.37;101266.00;5092490;28;20047;-68
2022/11/02 04:51:51;;;;;;;3.53;1.60;;;;;;;20.66;49.43;101266.53;5094519;28;20032;-68
2022/11/02 04:54:18;;;;;;;4.53;1.60;;;;;;;20.78;49.15;101265.94;5089692;28;20070;-69
2022/11/02 04:56:46;;;;;;;3.00;1.40;;;;;;;20.67;49.54;101250.47;5093832;28;20178;-68
2022/11/02 04:59:12;;;;;;;4.72;1.20;;;;;;;20.77;49.16;101264.28;5093486;28;20055;-69
2022/11/02 05:01:38;;;;;;;4.57;1.35;;;;;;;20.74;49.19;101271.75;5091260;28;20039;-70
2022/11/02 05:04:04;;;;;;;3.05;1.67;;;;;;;20.81;48.95;101268.22;5089973;28;20561;-68
2022/11/02 05:06:32;;;;;;;3.85;1.55;;;;;;;20.77;49.03;101250.22;5089150;28;20526;-69
2022/11/02 05:08:58;;;;;;;4.43;1.55;;;;;;;20.80;49.18;101257.81;5088019;28;20039;-70
2022/11/02 05:11:24;;;;;;;2.40;1.17;;;;;;;20.79;48.85;101256.97;5090657;28;20047;-69
2022/11/02 05:13:51;;;;;;;2.67;1.52;;;;;;;20.78;49.10;101273.88;5090044;28;20036;-69
2022/11/02 05:16:17;;;;;;;4.43;1.33;;;;;;;20.75;49.18;101271.56;5086696;28;20028;-69
2022/11/02 05:18:44;;;;;;;3.65;1.40;;;;;;;20.76;49.14;101277.69;5089176;28;20059;-69
2022/11/02 05:21:11;;;;;;;5.07;1.75;;;;;;;20.68;49.18;101281.22;5095147;28;20528;-70
2022/11/02 05:23:38;;;;;;;4.63;1.48;;;;;;;20.74;49.25;101285.81;5085806;28;20110;-69
2022/11/02 05:26:13;;;;;;;4.45;1.75;;;;;;;20.73;49.27;101275.41;5088768;28;20058;-69
2022/11/02 05:28:42;;;;;;;3.92;1.65;;;;;;;20.64;49.13;101274.59;5109364;28;20036;-69
2022/11/02 05:31:08;;;;;;;3.70;1.50;;;;;;;20.71;49.05;101275.56;5084894;28;20031;-69
2022/11/02 05:33:35;;;;;;;4.57;1.52;;;;;;;20.81;48.78;101278.81;5096803;28;20048;-69
2022/11/02 05:36:12;;;;;;;6.53;1.40;;;;;;;20.64;49.10;101292.31;5087385;28;20032;-69
2022/11/02 05:38:40;;;;;;;1.98;1.50;;;;;;;20.76;48.96;101280.34;5090240;28;20815;-69
2022/11/02 05:41:06;;;;;;;5.13;1.40;;;;;;;20.68;49.25;101283.03;5076590;28;20119;-69
2022/11/02 05:43:36;;;;;;;3.72;1.65;;;;;;;20.74;49.02;101283.16;5082695;28;20553;-69
2022/11/02 05:46:04;;;;;;;2.58;1.40;;;;;;;20.69;49.07;101287.34;5093100;28;20050;-69
2022/11/02 05:48:31;;;;;;;3.05;1.25;;;;;;;20.68;48.91;101291.81;5093767;28;20595;-69
2022/11/02 05:50:59;;;;;;;4.80;1.73;;;;;;;20.77;48.69;101290.75;5089787;28;20519;-70
2022/11/02 05:53:25;;;;;;;3.42;1.40;;;;;;;20.69;48.89;101293.44;5101366;28;20058;-69
2022/11/02 05:55:52;;;;;;;4.97;2.08;;;;;;;20.69;49.01;101297.91;5100538;28;20131;-69
2022/11/02 05:58:18;;;;;;;4.22;1.40;;;;;;;20.68;48.94;101297.09;5095090;28;20044;-69
2022/11/02 06:00:45;;;;;;;5.57;1.60;;;;;;;20.62;49.00;101297.78;5089311;28;20138;-68
2022/11/02 06:03:11;;;;;;;4.15;1.70;;;;;;;20.68;48.77;101294.44;5089996;28;20036;-69
2022/11/02 06:05:37;;;;;;;4.10;1.52;;;;;;;20.68;48.82;101305.03;5093182;28;20406;-69
2022/11/02 06:08:02;;;;;;;3.03;1.50;;;;;;;20.70;49.00;101303.03;5094424;28;20036;-69
2022/11/02 06:10:29;;;;;;;6.60;2.13;;;;;;;20.65;49.03;101315.16;5100172;28;20047;-70
2022/11/02 06:12:58;;;;;;;4.65;1.90;;;;;;;20.73;48.67;101320.38;5102954;28;20545;-68
2022/11/02 06:15:25;;;;;;;6.53;1.70;;;;;;;20.66;48.91;101316.78;5093108;28;20113;-69
2022/11/02 06:17:50;;;;;;;7.65;2.22;;;;;;;20.58;48.88;101307.06;5092524;28;20035;-69
2022/11/02 06:20:17;;;;;;;6.90;2.42;;;;;;;20.62;48.97;101315.47;5095030;28;20063;-69
2022/11/02 06:22:43;;;;;;;4.50;1.83;;;;;;;20.70;48.61;101323.38;5092282;28;20055;-69
2022/11/02 06:25:09;;;;;;;4.55;1.50;;;;;;;20.67;48.79;101329.03;5091541;28;20044;-69
2022/11/02 06:27:35;;;;;;;4.15;1.85;;;;;;;20.74;48.71;101328.16;5090421;28;20032;-70
2022/11/02 06:30:04;;;;;;;9.45;2.00;;;;;;;20.63;48.83;101330.34;5093914;28;20035;-69
2022/11/02 06:32:30;;;;;;;5.80;1.58;;;;;;;20.64;48.91;101342.59;5089312;28;20032;-69
2022/11/02 06:34:55;;;;;;;5.95;1.70;;;;;;;20.61;48.82;101351.69;5086262;28;20371;-69
2022/11/02 06:37:21;;;;;;;2.58;1.52;;;;;;;20.64;48.73;101355.81;5094425;28;20032;-69
2022/11/02 06:39:47;;;;;;;2.60;1.50;;;;;;;20.60;49.06;101354.50;5111265;27;20080;-70
2022/11/02 06:42:13;;;;;;;4.38;2.05;;;;;;;20.49;49.10;101358.38;5095564;28;20039;-69
2022/11/02 06:44:38;;;;;;;4.00;1.88;;;;;;;20.58;49.09;101375.84;5091421;28;20565;-69
2022/11/02 06:47:04;;;;;;;4.72;1.27;;;;;;;20.59;48.89;101361.63;5090747;28;20047;-69
2022/11/02 06:49:30;;;;;;;3.25;1.42;;;;;;;20.57;49.01;101383.97;5093167;28;20308;-70
2022/11/02 06:51:55;;;;;;;6.88;2.25;;;;;;;20.58;49.00;101378.50;5096660;28;20036;-70
2022/11/02 06:54:21;;;;;;;5.78;1.70;;;;;;;20.66;48.79;101390.91;5092136;28;20040;-69
2022/11/02 06:56:46;;;;;;;5.50;1.92;;;;;;;20.73;48.67;101384.72;5098198;28;20047;-69
2022/11/02 06:59:12;;;;;;;4.43;1.90;;;;;;;20.68;48.62;101396.84;5091638;28;20075;-69
2022/11/02 07:01:37;;;;;;;3.53;1.63;;;;;;;20.59;48.98;101390.72;5095405;28;20040;-69
2022/11/02 07:04:03;;;;;;;8.52;2.80;;;;;;;20.57;48.96;101405.13;5094549;28;20439;-69
2022/11/02 07:06:29;;;;;;;4.05;2.05;;;;;;;20.60;48.74;101410.91;5091218;28;20036;-69
2022/11/02 07:08:54;;;;;;;3.33;1.70;;;;;;;20.66;48.86;101426.13;5089745;28;20121;-69
2022/11/02 07:11:20;;;;;;;5.75;2.00;;;;;;;20.62;48.94;101426.59;5092830;28;20051;-69
2022/11/02 07:13:46;;;;;;;5.55;2.10;;;;;;;20.60;48.95;101421.50;5090975;28;20082;-69
2022/11/02 07:16:12;;;;;;;4.72;1.63;;;;;;;20.65;48.79;101421.00;5091684;28;20043;-69
2022/11/02 07:18:37;;;;;;;5.68;2.05;;;;;;;20.65;48.72;101436.88;5092516;28;20039;-70
2022/11/02 07:21:03;;;;;;;5.03;1.90;;;;;;;20.62;48.68;101453.06;5098695;28;20461;-69
2022/11/02 07:23:29;;;;;;;5.90;1.70;;;;;;;20.57;48.96;101466.00;5093632;28;20165;-69
2022/11/02 07:25:54;;;;;;;5.35;1.88;;;;;;;20.64;48.76;101481.00;5091903;28;20031;-69
2022/11/02 07:28:20;;;;;;;9.25;2.33;;;;;;;20.56;48.95;101474.94;5096369;28;20055;-69
2022/11/02 07:30:46;;;;;;;7.00;2.13;;;;;;;20.63;48.60;101475.88;5095251;28;20080;-69
2022/11/02 07:33:11;;;;;;;5.00;1.80;;;;;;;20.65;48.86;101481.88;5092255;28;20028;-69
2022/11/02 07:35:36;;;;;;;5.85;2.05;;;;;;;20.59;48.69;101490.47;5092718;28;20093;-69
2022/11/02 07:38:04;;;;;;;5.22;1.67;;;;;;;20.65;48.75;101497.75;5085278;28;21397;-69
2022/11/02 07:40:32;;;;;;;9.48;2.22;;;;;;;20.56;48.85;101494.28;5085930;28;20115;-69
2022/11/02 07:42:57;;;;;;;9.43;2.17;;;;;;;20.62;48.92;101508.63;5091687;28;20036;-69
2022/11/02 07:45:35;;;;;;;6.32;2.47;;;;;;;20.55;48.90;101505.84;5087211;28;20177;-69
2022/11/02 07:48:01;;;;;;;5.20;2.05;;;;;;;20.59;48.88;101509.81;5086551;28;20040;-69
2022/11/02 07:50:27;;;;;;;6.82;2.00;;;;;;;20.59;48.84;101509.81;5088876;28;20024;-69
2022/11/02 07:52:55;;;;;;;4.20;1.70;;;;;;;20.55;48.63;101500.56;5092297;28;20040;-69
2022/11/02 07:55:23;;;;;;;5.35;1.92;;;;;;;20.61;48.71;101521.03;5090282;28;20127;-69
2022/11/02 07:57:58;;;;;;;3.15;1.77;;;;;;;20.64;48.79;101519.88;5090551;28;20032;-69
2022/11/02 08:00:27;;;;;;;5.88;1.90;;;;;;;20.62;48.83;101535.94;5088604;28;20046;-69
2022/11/02 08:02:54;;;;;;;5.93;1.70;;;;;;;20.60;48.93;101535.28;5091860;28;20645;-69
2022/11/02 08:05:20;;;;;;;6.20;1.73;;;;;;;20.63;48.78;101532.28;5091316;28;20489;-69
2022/11/02 08:07:45;;;;;;;5.72;1.60;;;;;;;20.59;48.93;101546.84;5090840;28;20046;-69
2022/11/02 08:10:10;;;;;;;7.05;1.90;;;;;;;20.68;48.88;101543.22;5089444;28;20631;-69
2022/11/02 08:12:36;;;;;;;6.40;2.05;;;;;;;20.64;49.13;101549.81;5092737;28;20068;-69
2022/11/02 08:15:02;;;;;;;10.95;2.50;;;;;;;20.60;49.19;101563.56;5090101;28;20544;-69
2022/11/02 08:17:27;;;;;;;6.90;2.72;;;;;;;20.72;49.07;101565.69;5093283;28;20526;-69
2022/11/02 08:19:53;;;;;;;6.22;1.95;;;;;;;20.74;48.91;101570.81;5091243;28;20036;-70
2022/11/02 08:22:18;;;;;;;5.93;2.00;;;;;;;20.72;49.25;101563.06;5093318;28;20089;-69
2022/11/02 08:24:44;;;;;;;7.88;2.05;;;;;;;20.75;48.98;101577.75;5087967;28;20047;-69
2022/11/02 08:27:09;;;;;;;7.20;2.13;;;;;;;20.75;49.05;101586.53;5090668;28;20028;-69
2022/11/02 08:29:35;;;;;;;6.18;2.30;;;;;;;20.71;48.98;101584.41;5090924;28;20484;-69
2022/11/02 08:32:01;;;;;;;7.85;1.83;;;;;;;20.72;49.00;101589.53;5089510;28;20027;-70
2022/11/02 08:34:27;;;;;;;8.55;2.60;;;;;;;20.72;49.00;101596.63;5091205;28;20078;-70
2022/11/02 08:36:53;;;;;;;10.45;2.35;;;;;;;20.72;49.13;101591.34;5090728;28;20040;-70
2022/11/02 08:39:18;;;;;;;7.80;2.20;;;;;;;20.72;48.96;101589.53;5087017;28;20046;-69
2022/11/02 08:41:43;;;;;;;6.22;1.70;;;;;;;20.67;49.08;101604.25;5094062;28;20054;-68
2022/11/02 08:44:09;;;;;;;7.10;2.20;;;;;;;20.61;49.24;101600.44;5093339;28;20579;-68
2022/11/02 08:46:35;;;;;;;6.20;2.10;;;;;;;20.70;48.72;101602.09;5097184;28;20066;-70
2022/11/02 08:49:00;;;;;;;6.53;1.83;;;;;;;20.69;48.81;101603.09;5089711;28;20040;-69
2022/11/02 08:51:26;;;;;;;8.15;2.33;;;;;;;20.79;48.45;101610.84;5093334;28;20039;-71
2022/11/02 08:53:51;;;;;;;8.27;2.72;;;;;;;20.68;48.49;101614.66;5084857;28;20491;-70
2022/11/02 08:56:17;;;;;;;8.27;2.45;;;;;;;20.66;48.71;101619.31;5086644;28;20047;-69
2022/11/02 08:58:42;;;;;;;5.25;1.90;;;;;;;20.71;48.46;101626.75;5090483;28;20044;-70
2022/11/02 09:01:07;;;;;;;5.75;2.00;;;;;;;20.74;48.11;101621.94;5095068;28;20204;-70
2022/11/02 09:03:33;;;;;;;6.53;1.88;;;;;;;20.65;48.13;101627.41;5091470;28;20043;-70
2022/11/02 09:06:00;;;;;;;3.92;1.75;;;;;;;20.66;47.82;101627.25;5093897;28;20394;-69
2022/11/02 09:08:27;;;;;;;4.40;1.75;;;;;;;20.64;48.03;101628.38;5092149;28;20480;-69
2022/11/02 09:10:52;;;;;;;8.70;1.98;;;;;;;20.69;47.93;101628.72;5094021;28;20047;-69
2022/11/02 09:13:24;;;;;;;6.43;2.25;;;;;;;20.66;47.75;101629.06;5092243;28;20036;-69
2022/11/02 09:15:54;;;;;;;5.68;1.73;;;;;;;20.71;47.82;101647.91;5086363;28;20658;-69
2022/11/02 09:18:21;;;;;;;5.80;2.22;;;;;;;20.76;47.80;101650.88;5089813;28;20490;-70
2022/11/02 09:20:47;;;;;;;4.80;1.92;;;;;;;20.67;48.03;101652.72;5086901;28;20177;-71
2022/11/02 09:23:17;;;;;;;9.38;1.92;;;;;;;20.69;47.94;101656.03;5083286;28;21596;-72
2022/11/02 09:25:43;;;;;;;4.32;1.90;;;;;;;20.67;47.90;101659.84;5090171;28;20047;-71
2022/11/02 09:28:08;;;;;;;10.02;2.05;;;;;;;20.72;47.75;101673.38;5092280;28;20351;-71
2022/11/02 09:30:34;;;;;;;4.93;2.03;;;;;;;20.61;47.98;101663.94;5095178;28;20027;-72
2022/11/02 09:33:02;;;;;;;8.20;2.88;;;;;;;20.72;47.82;101683.97;5092492;28;20039;-73
2022/11/02 09:35:30;;;;;;;6.70;1.92;;;;;;;20.66;47.77;101680.19;5091353;28;20039;-72
2022/11/02 09:37:56;;;;;;;5.72;2.00;;;;;;;20.63;48.05;101679.66;5098184;28;20482;-73
2022/11/02 09:40:27;;;;;;;9.32;2.00;;;;;;;20.67;47.92;101688.94;5093463;28;20044;-72
2022/11/02 09:43:07;;;;;;;5.63;1.85;;;;;;;20.72;47.71;101684.81;5090483;28;20095;-72
2022/11/02 09:45:38;;;;;;;5.13;1.90;;;;;;;20.64;47.81;101692.72;5094793;27;20070;-72
2022/11/02 09:48:17;;;;;;;8.25;2.03;;;;;;;20.75;47.00;101705.63;5091576;28;20044;-70
2022/11/02 09:51:04;;;;;;;5.23;2.03;;;;;;;21.09;46.33;101702.81;5043064;28;20043;-65
2022/11/02 09:53:48;;;;;;;10.02;2.10;;;;;;;21.26;46.13;101719.56;5094048;28;20088;-64
2022/11/02 09:56:18;;;;;;;10.27;1.98;;;;;;;21.36;45.76;101714.06;5091351;27;20525;-64
2022/11/02 09:58:50;;;;;;;11.30;2.10;;;;;;;21.45;46.03;101721.03;5087366;28;20032;-65
2022/11/02 10:01:45;;;;;;;5.57;1.92;;;;;;;21.58;45.84;101720.50;5086181;28;20059;-66
2022/11/02 10:04:35;;;;;;;5.25;1.83;;;;;;;21.45;46.39;101734.28;5077412;28;20414;-68
2022/11/02 10:07:31;;;;;;;5.47;1.75;;;;;;;21.70;46.16;101738.50;5080712;28;20055;-70
2022/11/02 10:10:10;;;;;;;3.22;2.00;;;;;;;21.78;45.84;101739.50;5084810;28;21233;-67
2022/11/02 10:12:42;;;;;;;5.32;1.77;;;;;;;21.90;45.81;101760.19;5087529;28;20039;-68
2022/11/02 10:15:15;;;;;;;3.25;1.83;;;;;;;21.91;45.96;101751.22;5090436;28;20101;-68
2022/11/02 10:17:42;;;;;;;5.43;2.22;;;;;;;22.01;45.71;101766.94;5084593;27;20047;-67
2022/11/02 10:20:21;;;;;;;4.50;1.60;;;;;;;22.08;45.75;101759.94;5091924;28;20023;-74
2022/11/02 10:22:47;;;;;;;6.43;1.60;;;;;;;22.13;45.64;101778.03;5063746;28;20051;-70
2022/11/02 10:25:15;;;;;;;5.47;2.10;;;;;;;22.11;45.45;101764.94;5086974;28;20481;-71
2022/11/02 10:27:43;;;;;;;5.68;2.20;;;;;;;22.15;45.73;101773.38;5087879;28;20425;-68
2022/11/02 10:30:17;;;;;;;8.55;1.98;;;;;;;22.24;45.27;101767.00;5089860;28;20198;-71
2022/11/02 10:32:44;;;;;;;5.45;2.10;;;;;;;22.23;45.66;101758.22;5089346;28;20037;-73
2022/11/02 10:35:23;;;;;;;9.60;2.33;;;;;;;22.22;45.36;101767.19;5087555;28;20044;-74
2022/11/02 10:37:54;;;;;;;6.32;1.90;;;;;;;22.26;45.46;101772.97;5074875;28;20040;-74
2022/11/02 10:40:30;;;;;;;7.97;1.98;;;;;;;22.29;45.13;101762.88;5074542;28;20031;-74
2022/11/02 10:43:23;;;;;;;5.95;1.80;;;;;;;22.33;45.22;101789.88;5088953;28;20040;-75
2022/11/02 10:46:10;;;;;;;5.97;1.90;;;;;;;22.34;45.49;101783.56;5089774;28;20673;-73
2022/11/02 10:48:52;;;;;;;5.10;1.40;;;;;;;22.37;45.27;101785.88;5088608;28;20044;-75
2022/11/02 10:51:18;;;;;;;3.10;1.48;;;;;;;22.39;44.96;101791.00;5087435;28;20118;-75
2022/11/02 10:53:46;;;;;;;7.32;1.83;;;;;;;22.41;45.29;101794.31;5072779;28;20036;-78
2022/11/02 10:56:18;;;;;;;4.70;1.67;;;;;;;22.44;45.15;101796.59;5074812;28;20040;-74
2022/11/02 10:59:11;;;;;;;6.25;1.63;;;;;;;22.49;45.17;101804.91;5087290;28;20089;-74
2022/11/02 11:01:45;;;;;;;4.32;1.80;;;;;;;22.51;45.08;101816.16;5089991;28;20462;-74
2022/11/02 11:04:25;;;;;;;8.38;1.92;;;;;;;22.53;44.77;101833.56;5090318;28;20092;-72
2022/11/02 11:06:50;;;;;;;7.03;2.20;;;;;;;22.43;44.96;101817.00;5085509;28;20459;-71
2022/11/02 11:09:22;;;;;;;3.35;1.60;;;;;;;22.56;45.05;101827.91;5084029;28;20174;-72
2022/11/02 11:11:53;;;;;;;6.95;2.17;;;;;;;22.51;45.00;101816.16;5058997;28;20657;-67
2022/11/02 11:14:21;;;;;;;6.13;1.80;;;;;;;22.46;45.08;101819.34;5090793;28;20063;-65
2022/11/02 11:16:51;;;;;;;8.27;2.15;;;;;;;22.48;45.57;101833.28;5087996;28;20024;-67
2022/11/02 11:19:34;;;;;;;4.05;2.25;;;;;;;22.48;45.54;101829.78;5095760;28;20031;-68
2022/11/02 11:22:23;;;;;;;5.18;1.98;;;;;;;22.44;45.41;101829.31;5094181;27;20119;-69
2022/11/02 11:24:48;;;;;;;5.00;1.77;;;;;;;22.46;45.36;101827.31;5090041;28;20042;-66
2022/11/02 11:27:19;;;;;;;5.57;1.88;;;;;;;22.48;45.06;101835.09;5081573;28;20023;-68
2022/11/02 11:29:57;;;;;;;8.70;2.28;;;;;;;22.46;45.15;101831.78;5084585;28;20036;-69
2022/11/02 11:32:31;;;;;;;4.15;2.00;;;;;;;22.40;45.11;101848.38;5093811;28;20446;-71
2022/11/02 11:35:06;;;;;;;6.65;1.80;;;;;;;22.39;44.96;101838.78;5086931;28;20040;-70
2022/11/02 11:37:32;;;;;;;7.97;2.75;;;;;;;22.40;44.75;101843.91;5088355;28;20131;-71
2022/11/02 11:40:03;;;;;;;6.93;1.90;;;;;;;22.36;44.69;101839.13;5093056;28;20062;-71
2022/11/02 11:42:35;;;;;;;6.30;2.25;;;;;;;22.36;44.85;101836.47;5089938;28;20041;-69
2022/11/02 11:45:24;;;;;;;6.88;1.73;;;;;;;22.37;44.74;101851.38;5085436;27;20050;-70
2022/11/02 11:47:57;;;;;;;3.75;1.38;;;;;;;22.37;44.39;101838.94;5091345;28;20118;-69
2022/11/02 11:50:22;;;;;;;7.60;1.98;;;;;;;22.37;44.58;101848.72;5089804;28;20031;-69